createdAt,value
2022-08-30T00:02:22.736Z,4.43
2022-08-30T00:04:54.342Z,4.40
2022-08-30T00:07:23.010Z,4.07
2022-08-30T00:09:50.603Z,4.30
2022-08-30T00:12:20.933Z,4.20
2022-08-30T00:14:48.773Z,4.13
2022-08-30T00:17:16.370Z,3.75
2022-08-30T00:19:43.927Z,3.60
2022-08-30T00:22:11.497Z,3.80
2022-08-30T00:24:39.428Z,3.75
2022-08-30T00:27:06.997Z,3.60
2022-08-30T00:29:34.537Z,3.58
2022-08-30T00:32:02.644Z,3.28
2022-08-30T00:34:32.294Z,3.67
2022-08-30T00:37:00.387Z,3.92
2022-08-30T00:39:27.921Z,3.42
2022-08-30T00:41:55.649Z,3.97
2022-08-30T00:44:24.176Z,4.10
2022-08-30T00:46:51.740Z,4.20
2022-08-30T00:49:19.364Z,4.28
2022-08-30T00:51:47.409Z,4.30
2022-08-30T00:54:15.235Z,4.78
2022-08-30T00:56:43.171Z,3.80
2022-08-30T00:59:11.157Z,3.97
2022-08-30T01:01:39.221Z,4.80
2022-08-30T01:04:08.911Z,3.90
2022-08-30T01:06:37.303Z,4.18
2022-08-30T01:09:05.940Z,3.75
2022-08-30T01:11:35.492Z,4.45
2022-08-30T01:14:04.962Z,4.13
2022-08-30T01:16:34.431Z,4.50
2022-08-30T01:19:04.304Z,4.32
2022-08-30T01:21:56.849Z,4.40
2022-08-30T01:24:24.578Z,4.40
2022-08-30T01:26:52.201Z,4.25
2022-08-30T01:29:23.538Z,4.03
2022-08-30T01:31:51.480Z,3.97
2022-08-30T01:34:19.292Z,3.80
2022-08-30T01:36:47.343Z,3.65
2022-08-30T01:39:16.380Z,3.95
2022-08-30T01:41:43.985Z,3.90
2022-08-30T01:44:13.129Z,3.35
2022-08-30T01:46:46.926Z,3.53
2022-08-30T01:49:16.814Z,3.97
2022-08-30T01:51:44.837Z,3.85
2022-08-30T01:54:12.478Z,3.65
2022-08-30T01:56:40.466Z,3.78
2022-08-30T01:59:08.218Z,3.35
2022-08-30T02:01:37.351Z,3.90
2022-08-30T02:04:06.170Z,3.47
2022-08-30T02:06:34.606Z,4.00
2022-08-30T02:09:02.479Z,3.95
2022-08-30T02:11:30.562Z,3.42
2022-08-30T02:13:58.178Z,4.00
2022-08-30T02:16:26.448Z,4.25
2022-08-30T02:18:56.214Z,3.40
2022-08-30T02:21:24.986Z,3.13
2022-08-30T02:23:52.663Z,3.47
2022-08-30T02:26:21.667Z,3.22
2022-08-30T02:28:50.402Z,3.03
2022-08-30T02:31:20.954Z,3.50
2022-08-30T02:33:51.419Z,3.97
2022-08-30T02:36:20.920Z,3.05
2022-08-30T02:38:50.043Z,3.63
2022-08-30T02:41:18.637Z,3.20
2022-08-30T02:43:46.936Z,3.00
2022-08-30T02:46:14.984Z,3.33
2022-08-30T02:48:43.177Z,3.88
2022-08-30T02:51:13.332Z,3.72
2022-08-30T02:53:42.569Z,3.50
2022-08-30T02:56:12.357Z,3.83
2022-08-30T02:58:42.551Z,3.83
2022-08-30T03:01:13.806Z,3.28
2022-08-30T03:03:43.372Z,3.22
2022-08-30T03:06:11.850Z,3.40
2022-08-30T03:08:39.925Z,3.58
2022-08-30T03:11:07.871Z,2.78
2022-08-30T03:13:35.526Z,3.42
2022-08-30T03:16:03.394Z,3.70
2022-08-30T03:18:31.037Z,3.67
2022-08-30T03:20:58.716Z,3.58
2022-08-30T03:23:26.358Z,3.15
2022-08-30T03:25:53.902Z,3.28
2022-08-30T03:28:21.537Z,3.30
2022-08-30T03:30:49.226Z,2.90
2022-08-30T03:33:18.479Z,2.80
2022-08-30T03:35:46.342Z,2.72
2022-08-30T03:38:14.002Z,3.47
2022-08-30T03:40:41.984Z,2.80
2022-08-30T03:43:09.776Z,2.47
2022-08-30T03:45:37.899Z,2.75
2022-08-30T03:48:05.574Z,2.75
2022-08-30T03:50:35.272Z,2.70
2022-08-30T03:53:03.385Z,2.70
2022-08-30T03:55:31.066Z,2.80
2022-08-30T03:57:58.683Z,3.00
2022-08-30T04:00:26.841Z,2.72
2022-08-30T04:02:54.459Z,3.30
2022-08-30T04:05:22.098Z,2.90
2022-08-30T04:07:50.021Z,2.60
2022-08-30T04:10:17.625Z,2.53
2022-08-30T04:12:49.409Z,3.22
2022-08-30T04:15:19.689Z,2.60
2022-08-30T04:17:47.645Z,3.15
2022-08-30T04:20:16.409Z,2.70
2022-08-30T04:22:44.029Z,3.13
2022-08-30T04:25:15.621Z,2.75
2022-08-30T04:27:45.557Z,2.70
2022-08-30T04:30:15.537Z,2.58
2022-08-30T04:32:43.996Z,2.38
2022-08-30T04:35:13.127Z,2.30
2022-08-30T04:37:40.879Z,3.03
2022-08-30T04:40:09.637Z,2.88
2022-08-30T04:42:38.082Z,3.30
2022-08-30T04:45:09.250Z,3.60
2022-08-30T04:47:37.467Z,3.47
2022-08-30T04:50:07.160Z,3.45
2022-08-30T04:52:34.841Z,3.22
2022-08-30T04:55:02.546Z,4.30
2022-08-30T04:57:30.209Z,3.05
2022-08-30T04:59:57.846Z,2.42
2022-08-30T05:02:25.550Z,2.28
2022-08-30T05:05:12.031Z,2.20
2022-08-30T05:07:41.999Z,1.98
2022-08-30T05:10:11.489Z,1.98
2022-08-30T05:12:40.675Z,1.75
2022-08-30T05:15:08.818Z,1.83
2022-08-30T05:17:38.840Z,1.63
2022-08-30T05:20:11.382Z,1.85
2022-08-30T05:22:41.137Z,1.95
2022-08-30T05:25:09.166Z,2.08
2022-08-30T05:27:42.442Z,2.00
2022-08-30T05:30:10.891Z,1.80
2022-08-30T05:32:38.475Z,1.58
2022-08-30T05:35:07.781Z,2.05
2022-08-30T05:37:35.971Z,1.70
2022-08-30T05:40:05.455Z,1.88
2022-08-30T05:42:40.254Z,2.05
2022-08-30T05:45:08.716Z,1.90
2022-08-30T05:47:36.911Z,2.67
2022-08-30T05:50:09.101Z,1.77
2022-08-30T05:52:41.461Z,1.80
2022-08-30T05:55:10.360Z,1.60
2022-08-30T05:57:40.305Z,1.65
2022-08-30T06:00:18.104Z,1.70
2022-08-30T06:02:46.058Z,2.10
2022-08-30T06:05:14.645Z,1.40
2022-08-30T06:07:43.535Z,1.80
2022-08-30T06:10:12.537Z,1.85
2022-08-30T06:12:40.828Z,2.15
2022-08-30T06:15:09.036Z,1.92
2022-08-30T06:17:36.842Z,1.98
2022-08-30T06:20:04.806Z,1.80
2022-08-30T06:22:32.451Z,1.90
2022-08-30T06:25:00.229Z,1.60
2022-08-30T06:27:27.972Z,1.92
2022-08-30T06:29:55.592Z,1.80
2022-08-30T06:32:23.283Z,1.52
2022-08-30T06:34:50.930Z,1.65
2022-08-30T06:37:21.944Z,2.03
2022-08-30T06:39:59.923Z,1.67
2022-08-30T06:42:32.245Z,1.67
2022-08-30T06:45:01.845Z,1.98
2022-08-30T06:47:29.855Z,2.10
2022-08-30T06:49:58.308Z,1.75
2022-08-30T06:52:26.725Z,1.70
2022-08-30T06:54:58.373Z,1.92
2022-08-30T06:57:26.888Z,2.17
2022-08-30T06:59:58.509Z,2.08
2022-08-30T07:04:54.653Z,2.03
2022-08-30T07:07:23.226Z,1.55
2022-08-30T07:09:50.974Z,1.38
2022-08-30T07:12:18.796Z,1.52
2022-08-30T07:14:46.560Z,1.65
2022-08-30T07:17:34.890Z,1.60
2022-08-30T07:20:05.038Z,2.00
2022-08-30T07:22:34.000Z,1.77
2022-08-30T07:25:02.773Z,1.67
2022-08-30T07:27:31.510Z,1.40
2022-08-30T07:29:59.484Z,1.60
2022-08-30T07:32:27.594Z,1.50
2022-08-30T07:34:56.746Z,1.30
2022-08-30T07:37:24.641Z,1.10
2022-08-30T07:39:52.511Z,1.63
2022-08-30T07:42:20.557Z,1.40
2022-08-30T07:44:48.476Z,1.20
2022-08-30T07:47:16.994Z,1.33
2022-08-30T07:49:44.851Z,0.98
2022-08-30T07:52:12.805Z,1.38
2022-08-30T07:54:41.097Z,1.13
2022-08-30T07:57:09.525Z,0.90
2022-08-30T07:59:37.156Z,1.30
2022-08-30T08:02:04.877Z,1.30
2022-08-30T08:04:33.251Z,1.17
2022-08-30T08:07:00.963Z,1.00
2022-08-30T08:09:28.687Z,1.25
2022-08-30T08:11:56.751Z,1.10
2022-08-30T08:14:24.451Z,1.25
2022-08-30T08:16:52.307Z,1.40
2022-08-30T08:19:20.445Z,1.08
2022-08-30T08:21:52.751Z,1.25
2022-08-30T08:24:27.918Z,1.02
2022-08-30T08:26:55.721Z,1.00
2022-08-30T08:29:23.696Z,1.17
2022-08-30T08:31:51.409Z,1.08
2022-08-30T08:34:19.354Z,1.20
2022-08-30T08:36:48.991Z,2.10
2022-08-30T08:39:18.097Z,1.20
2022-08-30T08:42:16.316Z,1.38
2022-08-30T08:45:19.105Z,1.30
2022-08-30T08:48:09.625Z,1.10
2022-08-30T08:51:02.459Z,1.20
2022-08-30T08:53:46.493Z,1.35
2022-08-30T08:56:17.808Z,1.70
2022-08-30T08:58:52.052Z,1.55
2022-08-30T09:01:24.231Z,1.05
2022-08-30T09:03:52.386Z,1.23
2022-08-30T09:06:45.737Z,1.30
2022-08-30T09:09:14.549Z,1.60
2022-08-30T09:11:44.486Z,1.23
2022-08-30T09:14:21.796Z,1.10
2022-08-30T09:17:13.586Z,1.42
2022-08-30T09:19:46.645Z,1.42
2022-08-30T09:22:32.547Z,1.20
2022-08-30T09:25:11.076Z,1.38
2022-08-30T09:27:42.514Z,1.10
2022-08-30T09:33:04.471Z,0.90
2022-08-30T09:35:42.528Z,1.40
2022-08-30T09:38:26.551Z,1.40
2022-08-30T09:40:58.747Z,1.30
2022-08-30T09:43:30.065Z,1.33
2022-08-30T09:46:00.847Z,1.00
2022-08-30T09:48:44.953Z,1.80
2022-08-30T09:51:15.169Z,1.25
2022-08-30T09:54:18.751Z,1.23
2022-08-30T09:56:56.123Z,1.20
2022-08-30T10:01:57.030Z,1.45
2022-08-30T10:04:45.082Z,1.40
2022-08-30T10:07:29.006Z,1.15
2022-08-30T10:10:16.685Z,1.15
2022-08-30T10:12:59.685Z,2.20
2022-08-30T10:15:40.812Z,1.48
2022-08-30T10:18:19.351Z,1.30
2022-08-30T10:21:09.153Z,1.70
2022-08-30T10:24:09.934Z,1.60
2022-08-30T10:26:49.923Z,1.33
2022-08-30T10:29:29.672Z,1.65
2022-08-30T10:32:10.719Z,1.27
2022-08-30T10:35:01.291Z,1.27
2022-08-30T10:37:32.123Z,1.35
2022-08-30T10:40:25.766Z,1.48
2022-08-30T10:42:56.747Z,2.03
2022-08-30T10:48:06.508Z,1.20
2022-08-30T10:50:44.054Z,1.15
2022-08-30T10:53:28.255Z,1.40
2022-08-30T10:55:58.948Z,1.40
2022-08-30T10:58:26.930Z,1.83
2022-08-30T11:01:07.888Z,1.30
2022-08-30T11:04:02.646Z,1.50
2022-08-30T11:06:53.969Z,1.33
2022-08-30T11:09:43.353Z,1.42
2022-08-30T11:12:19.743Z,1.60
2022-08-30T11:14:47.668Z,1.15
2022-08-30T11:17:37.977Z,1.30
2022-08-30T11:20:21.182Z,1.53
2022-08-30T11:23:16.194Z,1.23
2022-08-30T11:26:16.902Z,1.58
2022-08-30T11:28:48.362Z,1.98
2022-08-30T11:31:22.528Z,1.48
2022-08-30T11:33:54.181Z,1.80
2022-08-30T11:36:28.664Z,1.52
2022-08-30T11:39:07.945Z,1.38
2022-08-30T11:41:43.175Z,1.60
2022-08-30T11:44:22.585Z,1.90
2022-08-30T11:46:55.332Z,1.65
2022-08-30T11:49:31.206Z,1.30
2022-08-30T11:52:27.684Z,1.42
2022-08-30T11:55:18.625Z,2.13
2022-08-30T11:58:00.334Z,1.75
2022-08-30T12:00:31.498Z,1.73
2022-08-30T12:03:06.756Z,1.40
2022-08-30T12:05:40.938Z,1.40
2022-08-30T12:08:33.483Z,1.38
2022-08-30T12:11:12.002Z,1.73
2022-08-30T12:13:42.341Z,1.50
2022-08-30T12:16:19.741Z,1.17
2022-08-30T12:18:49.393Z,1.80
2022-08-30T12:21:20.056Z,1.58
2022-08-30T12:26:42.816Z,1.30
2022-08-30T12:29:22.677Z,1.40
2022-08-30T12:31:52.064Z,1.60
2022-08-30T12:34:27.337Z,1.73
2022-08-30T12:37:10.807Z,1.50
2022-08-30T12:39:41.464Z,1.38
2022-08-30T12:42:24.096Z,1.45
2022-08-30T12:44:59.413Z,1.25
2022-08-30T12:47:30.105Z,1.60
2022-08-30T12:52:26.468Z,1.40
2022-08-30T12:55:17.156Z,1.77
2022-08-30T13:00:39.858Z,1.98
2022-08-30T13:03:36.974Z,1.42
2022-08-30T13:06:08.042Z,1.52
2022-08-30T13:08:45.812Z,1.30
2022-08-30T13:11:29.541Z,1.70
2022-08-30T13:14:34.457Z,1.45
2022-08-30T13:17:20.913Z,1.70
2022-08-30T13:20:02.962Z,1.50
2022-08-30T13:22:34.567Z,1.50
2022-08-30T13:25:03.902Z,1.50
2022-08-30T13:27:36.998Z,2.10
2022-08-30T13:30:14.832Z,2.35
2022-08-30T13:32:43.340Z,1.73
2022-08-30T13:35:12.187Z,1.65
2022-08-30T13:37:49.858Z,1.95
2022-08-30T13:40:20.514Z,1.73
2022-08-30T13:42:49.417Z,1.95
2022-08-30T13:48:07.062Z,1.88
2022-08-30T13:50:34.662Z,2.97
2022-08-30T13:53:02.300Z,3.47
2022-08-30T13:55:29.889Z,2.78
2022-08-30T13:57:58.036Z,2.83
2022-08-30T14:00:26.586Z,1.73
2022-08-30T14:02:59.993Z,1.80
2022-08-30T14:05:49.485Z,1.63
2022-08-30T14:11:16.122Z,1.45
2022-08-30T14:16:36.950Z,1.40
2022-08-30T14:19:04.852Z,1.20
2022-08-30T14:21:33.484Z,1.30
2022-08-30T14:24:01.276Z,1.58
2022-08-30T14:26:33.640Z,1.60
2022-08-30T14:29:05.382Z,1.60
2022-08-30T14:31:38.068Z,1.38
2022-08-30T14:34:07.562Z,1.60
2022-08-30T14:36:37.989Z,1.98
2022-08-30T14:39:09.373Z,1.70
2022-08-30T14:41:43.953Z,1.75
2022-08-30T14:44:13.325Z,1.90
2022-08-30T14:46:41.901Z,1.70
2022-08-30T14:49:12.194Z,1.70
2022-08-30T14:51:40.471Z,1.73
2022-08-30T14:54:09.316Z,1.50
2022-08-30T14:56:39.241Z,1.60
2022-08-30T14:59:07.462Z,1.75
2022-08-30T15:01:37.253Z,1.73
2022-08-30T15:04:07.577Z,2.03
2022-08-30T15:06:36.458Z,1.60
2022-08-30T15:09:06.305Z,1.80
2022-08-30T15:11:34.590Z,1.73
2022-08-30T15:14:03.267Z,1.70
2022-08-30T15:16:35.049Z,2.10
2022-08-30T15:19:04.149Z,1.55
2022-08-30T15:21:34.965Z,1.73
2022-08-30T15:24:05.336Z,2.00
2022-08-30T15:26:33.751Z,1.43
2022-08-30T15:29:01.629Z,1.70
2022-08-30T15:31:31.873Z,1.48
2022-08-30T15:34:00.312Z,2.03
2022-08-30T15:36:29.965Z,2.10
2022-08-30T15:38:59.946Z,1.60
2022-08-30T15:41:28.888Z,1.50
2022-08-30T15:43:58.473Z,1.60
2022-08-30T15:46:32.335Z,1.80
2022-08-30T15:49:05.487Z,1.70
2022-08-30T15:51:41.701Z,1.50
2022-08-30T15:54:12.473Z,1.45
2022-08-30T15:56:40.484Z,1.70
2022-08-30T15:59:10.239Z,1.80
2022-08-30T16:01:38.411Z,1.60
2022-08-30T16:04:06.250Z,1.88
2022-08-30T16:06:37.314Z,1.52
2022-08-30T16:09:07.474Z,1.52
2022-08-30T16:11:36.062Z,1.70
2022-08-30T16:14:05.203Z,1.25
2022-08-30T16:16:33.179Z,1.88
2022-08-30T16:19:00.780Z,1.40
2022-08-30T16:21:30.934Z,1.60
2022-08-30T16:24:00.809Z,2.00
2022-08-30T16:26:30.395Z,1.73
2022-08-30T16:28:58.907Z,1.48
2022-08-30T16:31:28.281Z,1.20
2022-08-30T16:34:03.629Z,1.52
2022-08-30T16:36:32.970Z,1.60
2022-08-30T16:39:00.968Z,1.42
2022-08-30T16:41:28.967Z,1.25
2022-08-30T16:44:00.659Z,1.42
2022-08-30T16:46:28.890Z,1.35
2022-08-30T16:49:02.236Z,2.30
2022-08-30T16:51:32.183Z,1.65
2022-08-30T16:54:02.785Z,1.55
2022-08-30T16:56:32.542Z,2.28
2022-08-30T16:59:03.162Z,1.98
2022-08-30T17:01:34.933Z,1.52
2022-08-30T17:04:04.239Z,1.85
2022-08-30T17:06:32.897Z,1.67
2022-08-30T17:09:04.313Z,1.90
2022-08-30T17:11:33.569Z,1.67
2022-08-30T17:14:01.740Z,1.30
2022-08-30T17:16:30.144Z,1.58
2022-08-30T17:19:00.582Z,1.48
2022-08-30T17:21:29.870Z,1.70
2022-08-30T17:24:02.326Z,1.52
2022-08-30T17:26:33.567Z,2.13
2022-08-30T17:29:01.487Z,1.85
2022-08-30T17:31:31.157Z,1.58
2022-08-30T17:34:03.526Z,1.80
2022-08-30T17:36:35.536Z,2.15
2022-08-30T17:39:11.235Z,1.67
2022-08-30T17:41:49.985Z,2.20
2022-08-30T17:44:32.416Z,1.83
2022-08-30T17:47:00.659Z,1.67
2022-08-30T17:52:39.884Z,1.75
2022-08-30T17:55:09.210Z,2.03
2022-08-30T17:57:36.967Z,1.70
2022-08-30T18:00:07.462Z,1.80
2022-08-30T18:02:35.679Z,1.60
2022-08-30T18:05:05.886Z,1.60
2022-08-30T18:07:33.981Z,1.50
2022-08-30T18:10:01.809Z,1.80
2022-08-30T18:12:29.688Z,1.67
2022-08-30T18:15:02.039Z,2.92
2022-08-30T18:17:42.434Z,1.50
2022-08-30T18:20:10.766Z,1.45
2022-08-30T18:22:39.474Z,1.88
2022-08-30T18:25:08.626Z,1.80
2022-08-30T18:27:39.068Z,2.20
2022-08-30T18:32:39.385Z,2.20
2022-08-30T18:35:09.212Z,1.98
2022-08-30T18:37:40.209Z,1.77
2022-08-30T18:40:09.836Z,2.17
2022-08-30T18:42:37.920Z,2.33
2022-08-30T18:45:14.695Z,2.00
2022-08-30T18:47:43.670Z,1.90
2022-08-30T18:50:12.489Z,1.85
2022-08-30T18:52:40.285Z,2.25
2022-08-30T18:55:08.701Z,1.80
2022-08-30T18:57:38.128Z,2.55
2022-08-30T19:00:06.999Z,2.72
2022-08-30T19:02:34.823Z,2.25
2022-08-30T19:05:03.446Z,2.30
2022-08-30T19:07:37.534Z,2.45
2022-08-30T19:10:08.208Z,1.90
2022-08-30T19:12:41.138Z,2.00
2022-08-30T19:15:10.677Z,1.83
2022-08-30T19:17:41.432Z,1.88
2022-08-30T19:20:10.521Z,3.05
2022-08-30T19:23:08.767Z,2.10
2022-08-30T19:25:25.308Z,2.00
2022-08-30T19:27:52.935Z,2.13
2022-08-30T19:30:29.410Z,3.47
2022-08-30T19:32:56.478Z,1.80
2022-08-30T19:35:26.829Z,1.90
2022-08-30T19:37:58.660Z,2.25
2022-08-30T19:40:26.421Z,2.08
2022-08-30T19:42:54.133Z,2.38
2022-08-30T19:45:23.080Z,3.17
2022-08-30T19:47:53.199Z,2.38
2022-08-30T19:50:22.716Z,2.25
2022-08-30T19:52:54.712Z,2.22
2022-08-30T19:55:28.351Z,1.95
2022-08-30T19:57:58.373Z,2.30
2022-08-30T20:00:26.022Z,2.58
2022-08-30T20:02:53.681Z,2.10
2022-08-30T20:05:23.139Z,2.92
2022-08-30T20:07:51.976Z,1.98
2022-08-30T20:10:20.680Z,1.70
2022-08-30T20:12:50.274Z,1.75
2022-08-30T20:15:18.609Z,2.03
2022-08-30T20:18:05.404Z,2.00
2022-08-30T20:20:30.082Z,1.80
2022-08-30T20:22:57.749Z,2.40
2022-08-30T20:25:25.390Z,2.65
2022-08-30T20:27:55.221Z,2.05
2022-08-30T20:30:22.966Z,2.38
2022-08-30T20:32:52.575Z,2.45
2022-08-30T20:35:20.385Z,2.03
2022-08-30T20:37:49.315Z,2.42
2022-08-30T20:40:17.413Z,2.03
2022-08-30T20:42:46.404Z,2.08
2022-08-30T20:45:17.182Z,2.45
2022-08-30T20:47:45.328Z,2.50
2022-08-30T20:50:15.739Z,2.20
2022-08-30T20:52:44.362Z,2.15
2022-08-30T20:55:14.159Z,1.98
2022-08-30T20:57:41.850Z,2.38
2022-08-30T21:00:12.389Z,1.75
2022-08-30T21:02:47.034Z,2.57
2022-08-30T21:05:15.603Z,2.65
2022-08-30T21:07:44.589Z,2.42
2022-08-30T21:10:13.198Z,2.15
2022-08-30T21:12:42.818Z,2.72
2022-08-30T21:15:34.019Z,2.38
2022-08-30T21:17:41.959Z,2.40
2022-08-30T21:20:10.787Z,2.45
2022-08-30T21:22:39.106Z,2.15
2022-08-30T21:25:06.906Z,2.47
2022-08-30T21:27:34.920Z,2.03
2022-08-30T21:30:02.936Z,2.40
2022-08-30T21:32:30.714Z,2.08
2022-08-30T21:35:16.926Z,2.42
2022-08-30T21:37:44.521Z,2.50
2022-08-30T21:40:14.936Z,2.13
2022-08-30T21:42:48.750Z,2.40
2022-08-30T21:45:16.627Z,2.47
2022-08-30T21:47:44.318Z,2.13
2022-08-30T21:50:12.067Z,1.77
2022-08-30T21:52:39.660Z,1.88
2022-08-30T21:55:08.110Z,2.33
2022-08-30T21:57:36.143Z,2.20
2022-08-30T22:00:07.319Z,2.22
2022-08-30T22:02:35.297Z,2.42
2022-08-30T22:05:03.460Z,1.98
2022-08-30T22:07:31.029Z,2.10
2022-08-30T22:09:58.887Z,2.55
2022-08-30T22:12:27.149Z,2.70
2022-08-30T22:14:55.077Z,2.60
2022-08-30T22:17:23.309Z,2.35
2022-08-30T22:19:50.880Z,2.60
2022-08-30T22:22:18.461Z,3.00
2022-08-30T22:24:46.566Z,2.25
2022-08-30T22:27:14.549Z,2.63
2022-08-30T22:29:42.533Z,2.95
2022-08-30T22:32:10.271Z,2.08
2022-08-30T22:34:38.782Z,2.15
2022-08-30T22:37:08.066Z,1.90
2022-08-30T22:39:35.785Z,2.47
2022-08-30T22:42:03.632Z,2.30
2022-08-30T22:47:09.377Z,1.95
2022-08-30T22:49:36.990Z,2.10
2022-08-30T22:52:04.606Z,1.90
2022-08-30T22:54:33.282Z,2.35
2022-08-30T22:57:00.978Z,1.90
2022-08-30T22:59:32.784Z,2.40
2022-08-30T23:02:00.800Z,2.83
2022-08-30T23:04:28.442Z,3.08
2022-08-30T23:06:56.019Z,2.00
2022-08-30T23:09:23.676Z,2.42
2022-08-30T23:11:51.213Z,2.63
2022-08-30T23:14:19.216Z,2.50
2022-08-30T23:16:47.977Z,2.20
2022-08-30T23:19:16.998Z,2.33
2022-08-30T23:21:44.981Z,2.38
2022-08-30T23:24:31.016Z,2.33
2022-08-30T23:27:17.095Z,2.40
2022-08-30T23:30:03.357Z,2.03
2022-08-30T23:32:49.881Z,2.38
2022-08-30T23:35:36.433Z,3.38
2022-08-30T23:38:24.248Z,2.47
2022-08-30T23:41:10.484Z,3.28
2022-08-30T23:43:56.698Z,2.63
2022-08-30T23:46:42.887Z,2.38
2022-08-30T23:49:28.960Z,2.72
2022-08-30T23:52:15.059Z,2.83
2022-08-30T23:55:01.121Z,3.08
2022-08-30T23:57:47.212Z,3.05
